Time;durP1;ratioP1;P1;durP2;ratioP2;P2;SDS_P1;SDS_P2;PMS_P1;PMS_P2;Temp;Humidity;BMP_temperature;BMP_pressure;BME280_temperature;BME280_humidity;BME280_pressure;Samples;Min_cycle;Max_cycle;Signal;HPM_P1;HPM_P2
2023/04/26 00:02:17;;;;;;;14.03;10.10;;;;;;;;;;5071149;28;20205;-74
2023/04/26 00:04:46;;;;;;;16.13;11.17;;;;;;;;;;5072177;28;20619;-74
2023/04/26 00:07:14;;;;;;;15.43;9.40;;;;;;;;;;5071863;28;20201;-71
2023/04/26 00:09:43;;;;;;;13.57;10.43;;;;;;;;;;5071654;28;20230;-73
2023/04/26 00:12:10;;;;;;;13.37;9.00;;;;;;;;;;5072033;28;20263;-73
2023/04/26 00:14:38;;;;;;;11.50;8.80;;;;;;;;;;5071801;28;20251;-73
2023/04/26 00:17:05;;;;;;;13.90;8.93;;;;;;;;;;5072591;28;20205;-73
2023/04/26 00:19:33;;;;;;;10.43;8.90;;;;;;;;;;5071584;28;20312;-74
2023/04/26 00:22:00;;;;;;;11.83;9.90;;;;;;;;;;5071657;28;20248;-72
2023/04/26 00:24:28;;;;;;;12.90;9.80;;;;;;;;;;5072239;28;20366;-72
2023/04/26 00:26:55;;;;;;;17.20;13.13;;;;;;;;;;5072388;28;20285;-73
2023/04/26 00:29:23;;;;;;;29.87;17.90;;;;;;;;;;5071827;28;20221;-72
2023/04/26 00:31:50;;;;;;;17.03;11.20;;;;;;;;;;5071722;28;20557;-73
2023/04/26 00:34:17;;;;;;;18.20;12.23;;;;;;;;;;5071536;28;20208;-72
2023/04/26 00:36:45;;;;;;;25.57;15.27;;;;;;;;;;5071521;28;20205;-73
2023/04/26 00:39:12;;;;;;;13.93;10.37;;;;;;;;;;5071541;28;20608;-72
2023/04/26 00:41:39;;;;;;;13.97;10.67;;;;;;;;;;5070763;28;20297;-73
2023/04/26 00:44:07;;;;;;;12.77;9.37;;;;;;;;;;5053680;28;20677;-73
2023/04/26 00:46:34;;;;;;;13.50;9.67;;;;;;;;;;5071414;28;20624;-73
2023/04/26 00:49:02;;;;;;;27.70;15.83;;;;;;;;;;5071117;28;20217;-72
2023/04/26 00:51:30;;;;;;;16.33;9.93;;;;;;;;;;5070645;28;20220;-73
2023/04/26 00:53:58;;;;;;;11.50;9.77;;;;;;;;;;5053356;28;20263;-74
2023/04/26 00:56:25;;;;;;;14.43;9.93;;;;;;;;;;5071003;28;20714;-73
2023/04/26 00:58:52;;;;;;;12.97;9.30;;;;;;;;;;5052830;28;20213;-72
2023/04/26 01:01:20;;;;;;;10.87;9.37;;;;;;;;;;5070786;28;20280;-73
2023/04/26 01:03:48;;;;;;;11.70;9.13;;;;;;;;;;5071287;28;20284;-73
2023/04/26 01:06:15;;;;;;;10.70;8.83;;;;;;;;;;5070932;28;20201;-73
2023/04/26 01:08:42;;;;;;;12.63;8.70;;;;;;;;;;5070834;28;20209;-73
2023/04/26 01:11:10;;;;;;;12.00;8.70;;;;;;;;;;5070726;28;20240;-74
2023/04/26 01:13:38;;;;;;;13.80;9.60;;;;;;;;;;5070936;28;20217;-72
2023/04/26 01:16:07;;;;;;;20.33;12.57;;;;;;;;;;5070920;28;20201;-73
2023/04/26 01:18:34;;;;;;;20.80;11.90;;;;;;;;;;5070821;28;20201;-73
2023/04/26 01:21:03;;;;;;;23.37;13.93;;;;;;;;;;5070624;28;20237;-73
2023/04/26 01:23:31;;;;;;;19.77;12.20;;;;;;;;;;5070238;28;20208;-73
2023/04/26 01:25:58;;;;;;;16.57;11.53;;;;;;;;;;5052980;28;20202;-73
2023/04/26 01:28:26;;;;;;;59.83;27.60;;;;;;;;;;5070809;28;20252;-73
2023/04/26 01:30:53;;;;;;;32.57;17.87;;;;;;;;;;5070398;28;20262;-73
2023/04/26 01:33:20;;;;;;;37.77;20.17;;;;;;;;;;5070597;28;20319;-73
2023/04/26 01:35:48;;;;;;;12.73;9.30;;;;;;;;;;5070237;28;20228;-73
2023/04/26 01:38:16;;;;;;;11.97;8.83;;;;;;;;;;5070365;28;20292;-74
2023/04/26 01:40:45;;;;;;;12.83;8.20;;;;;;;;;;5070695;28;20663;-73
2023/04/26 01:43:14;;;;;;;12.33;8.30;;;;;;;;;;5070125;28;20206;-73
2023/04/26 01:45:41;;;;;;;11.47;8.50;;;;;;;;;;5070578;28;20248;-73
2023/04/26 01:48:08;;;;;;;10.30;8.43;;;;;;;;;;5070938;28;20652;-73
2023/04/26 01:50:36;;;;;;;10.23;8.10;;;;;;;;;;5070407;28;20233;-73
2023/04/26 01:53:03;;;;;;;13.13;7.97;;;;;;;;;;5070698;28;20205;-73
2023/04/26 01:55:30;;;;;;;9.90;8.47;;;;;;;;;;5070282;28;20593;-72
2023/04/26 01:57:58;;;;;;;10.77;8.23;;;;;;;;;;5070088;28;20233;-73
2023/04/26 02:00:27;;;;;;;13.10;7.97;;;;;;;;;;5070101;28;20319;-74
2023/04/26 02:02:55;;;;;;;11.83;9.20;;;;;;;;;;5070091;28;20203;-73
2023/04/26 02:05:23;;;;;;;9.23;8.27;;;;;;;;;;5052350;28;20197;-73
2023/04/26 02:07:50;;;;;;;12.37;9.23;;;;;;;;;;5052326;28;20197;-73
2023/04/26 02:10:17;;;;;;;10.73;8.93;;;;;;;;;;5069881;28;20252;-73
2023/04/26 02:12:44;;;;;;;11.73;8.57;;;;;;;;;;5052012;28;20237;-71
2023/04/26 02:15:12;;;;;;;15.00;8.57;;;;;;;;;;5052751;28;20652;-74
2023/04/26 02:17:39;;;;;;;11.70;9.37;;;;;;;;;;5070193;28;20202;-73
2023/04/26 02:20:10;;;;;;;11.33;8.50;;;;;;;;;;5070003;28;20232;-73
2023/04/26 02:22:37;;;;;;;11.23;8.77;;;;;;;;;;5070186;28;20182;-73
2023/04/26 02:25:05;;;;;;;15.50;9.67;;;;;;;;;;5072663;28;20301;-73
2023/04/26 02:27:32;;;;;;;12.00;8.73;;;;;;;;;;5073967;28;20205;-73
2023/04/26 02:30:01;;;;;;;14.53;9.53;;;;;;;;;;5056411;28;20228;-73
2023/04/26 02:32:28;;;;;;;11.97;9.50;;;;;;;;;;5074266;28;20211;-73
2023/04/26 02:34:56;;;;;;;15.80;10.73;;;;;;;;;;5073609;28;20308;-73
2023/04/26 02:37:23;;;;;;;17.90;10.30;;;;;;;;;;5073234;28;20198;-73
2023/04/26 02:39:51;;;;;;;14.77;10.13;;;;;;;;;;5072215;28;20320;-74
2023/04/26 02:42:18;;;;;;;13.60;9.53;;;;;;;;;;5072204;28;20225;-73
2023/04/26 02:44:45;;;;;;;13.37;9.40;;;;;;;;;;5072377;28;20240;-72
2023/04/26 02:47:12;;;;;;;12.07;8.53;;;;;;;;;;5054738;28;20296;-74
2023/04/26 02:49:40;;;;;;;12.33;9.20;;;;;;;;;;5072448;28;20649;-73
2023/04/26 02:52:07;;;;;;;10.60;8.40;;;;;;;;;;5072367;28;20685;-74
2023/04/26 02:54:34;;;;;;;13.37;8.80;;;;;;;;;;5072317;28;20309;-74
2023/04/26 02:57:01;;;;;;;13.10;9.03;;;;;;;;;;5071793;28;20202;-74
2023/04/26 02:59:29;;;;;;;30.23;14.80;;;;;;;;;;5071815;28;20321;-72
2023/04/26 03:01:56;;;;;;;10.77;9.67;;;;;;;;;;5071649;28;20232;-73
2023/04/26 03:04:24;;;;;;;13.53;9.10;;;;;;;;;;5072190;28;20209;-73
2023/04/26 03:06:51;;;;;;;14.23;9.50;;;;;;;;;;5072018;28;20297;-73
2023/04/26 03:09:22;;;;;;;13.37;9.50;;;;;;;;;;5072737;28;20272;-73
2023/04/26 03:11:49;;;;;;;13.67;8.80;;;;;;;;;;5072484;28;20202;-73
2023/04/26 03:14:16;;;;;;;11.83;8.90;;;;;;;;;;5072603;28;20663;-73
2023/04/26 03:16:44;;;;;;;13.13;9.07;;;;;;;;;;5072037;28;20252;-74
2023/04/26 03:19:11;;;;;;;14.17;9.07;;;;;;;;;;5071463;28;20315;-73
2023/04/26 03:21:38;;;;;;;13.77;9.70;;;;;;;;;;5071428;28;20324;-72
2023/04/26 03:24:06;;;;;;;13.63;9.90;;;;;;;;;;5071556;28;20211;-73
2023/04/26 03:26:33;;;;;;;10.67;9.10;;;;;;;;;;5071503;28;20201;-73
2023/04/26 03:29:02;;;;;;;12.40;8.93;;;;;;;;;;5071213;28;20275;-71
2023/04/26 03:31:29;;;;;;;13.40;8.93;;;;;;;;;;5071563;28;20663;-73
2023/04/26 03:33:56;;;;;;;12.77;9.67;;;;;;;;;;5071240;28;20205;-74
2023/04/26 03:36:24;;;;;;;12.97;9.97;;;;;;;;;;5071253;28;20297;-74
2023/04/26 03:38:52;;;;;;;12.03;9.23;;;;;;;;;;5071741;28;20217;-74
2023/04/26 03:41:20;;;;;;;12.87;10.07;;;;;;;;;;5071815;28;20225;-71
2023/04/26 03:43:47;;;;;;;16.00;10.60;;;;;;;;;;5071951;28;20201;-74
2023/04/26 03:46:14;;;;;;;16.20;11.67;;;;;;;;;;5072152;28;20202;-74
2023/04/26 03:48:42;;;;;;;19.07;14.60;;;;;;;;;;5071667;28;20293;-74
2023/04/26 03:51:09;;;;;;;14.03;10.10;;;;;;;;;;5072507;28;20229;-74
2023/04/26 03:53:36;;;;;;;14.50;9.63;;;;;;;;;;5071448;28;20304;-74
2023/04/26 03:56:04;;;;;;;14.40;9.97;;;;;;;;;;5054011;28;20583;-74
2023/04/26 03:58:31;;;;;;;15.77;10.73;;;;;;;;;;5071334;28;20244;-74
2023/04/26 04:00:59;;;;;;;15.57;10.37;;;;;;;;;;5071311;28;20678;-73
2023/04/26 04:03:29;;;;;;;16.27;10.30;;;;;;;;;;5071436;28;20633;-73
2023/04/26 04:05:56;;;;;;;14.73;10.53;;;;;;;;;;5070929;28;20202;-72
2023/04/26 04:08:24;;;;;;;15.00;10.40;;;;;;;;;;5071433;28;20213;-74
2023/04/26 04:10:51;;;;;;;14.93;10.53;;;;;;;;;;5071499;28;20225;-74
2023/04/26 04:13:18;;;;;;;14.93;10.83;;;;;;;;;;5071225;28;20247;-74
2023/04/26 04:15:46;;;;;;;13.67;11.20;;;;;;;;;;5071373;28;20267;-74
2023/04/26 04:18:13;;;;;;;13.90;9.80;;;;;;;;;;5071150;28;20296;-74
2023/04/26 04:20:41;;;;;;;14.00;10.70;;;;;;;;;;5070902;28;20817;-73
2023/04/26 04:23:08;;;;;;;13.00;10.60;;;;;;;;;;5070640;28;20301;-74
2023/04/26 04:25:36;;;;;;;14.70;10.63;;;;;;;;;;5070518;28;20206;-72
2023/04/26 04:28:03;;;;;;;15.40;11.10;;;;;;;;;;5071046;28;20687;-73
2023/04/26 04:30:30;;;;;;;17.10;11.23;;;;;;;;;;5070948;28;20249;-74
2023/04/26 04:32:58;;;;;;;16.40;11.50;;;;;;;;;;5070767;28;20738;-74
2023/04/26 04:35:28;;;;;;;15.10;11.03;;;;;;;;;;5070504;28;20296;-73
2023/04/26 04:37:55;;;;;;;16.43;11.67;;;;;;;;;;5071263;28;20263;-74
2023/04/26 04:40:24;;;;;;;15.70;11.80;;;;;;;;;;5070965;28;20257;-73
2023/04/26 04:42:52;;;;;;;18.33;11.77;;;;;;;;;;5070846;28;20225;-74
2023/04/26 04:45:20;;;;;;;16.67;12.53;;;;;;;;;;5071031;28;20205;-72
2023/04/26 04:47:47;;;;;;;15.30;11.97;;;;;;;;;;5069831;28;20292;-73
2023/04/26 04:50:15;;;;;;;17.50;11.53;;;;;;;;;;5070912;28;20305;-73
2023/04/26 04:52:42;;;;;;;14.43;10.77;;;;;;;;;;5071214;28;20292;-73
2023/04/26 04:55:09;;;;;;;14.87;10.83;;;;;;;;;;5070861;28;20245;-73
2023/04/26 04:57:37;;;;;;;13.23;10.47;;;;;;;;;;5070617;28;20251;-73
2023/04/26 05:00:09;;;;;;;13.80;10.33;;;;;;;;;;5070798;28;20792;-73
2023/04/26 05:02:37;;;;;;;10.33;9.20;;;;;;;;;;5070857;28;20225;-74
2023/04/26 05:05:04;;;;;;;11.43;9.07;;;;;;;;;;5071097;28;20304;-73
2023/04/26 05:07:32;;;;;;;10.70;9.40;;;;;;;;;;5070433;28;20205;-72
2023/04/26 05:10:00;;;;;;;11.37;8.80;;;;;;;;;;5070846;28;20249;-73
2023/04/26 05:12:27;;;;;;;14.23;11.03;;;;;;;;;;5070601;28;20237;-73
2023/04/26 05:14:54;;;;;;;17.90;12.83;;;;;;;;;;5053117;28;20215;-73
2023/04/26 05:17:22;;;;;;;16.23;11.67;;;;;;;;;;5053094;28;20866;-73
2023/04/26 05:19:49;;;;;;;18.87;13.80;;;;;;;;;;5070596;28;20300;-73
2023/04/26 05:22:21;;;;;;;24.47;15.97;;;;;;;;;;5070390;28;20867;-73
2023/04/26 05:24:48;;;;;;;17.93;13.57;;;;;;;;;;5070651;28;20212;-72
2023/04/26 05:27:15;;;;;;;15.77;12.77;;;;;;;;;;5052546;28;20251;-73
2023/04/26 05:29:43;;;;;;;14.50;12.00;;;;;;;;;;5070290;28;20316;-73
2023/04/26 05:32:10;;;;;;;11.83;10.13;;;;;;;;;;5070607;28;20279;-74
2023/04/26 05:34:37;;;;;;;12.07;9.07;;;;;;;;;;5070462;28;20212;-72
2023/04/26 05:37:05;;;;;;;8.70;7.80;;;;;;;;;;5071187;28;20205;-72
2023/04/26 05:39:33;;;;;;;10.97;8.53;;;;;;;;;;5070433;28;20233;-72
2023/04/26 05:42:02;;;;;;;8.77;7.50;;;;;;;;;;5070522;28;20317;-73
2023/04/26 05:44:29;;;;;;;14.53;8.90;;;;;;;;;;5070585;28;20660;-73
2023/04/26 05:46:57;;;;;;;32.13;19.43;;;;;;;;;;5070392;28;20659;-74
2023/04/26 05:49:24;;;;;;;9.43;8.43;;;;;;;;;;5070228;28;20225;-73
2023/04/26 05:51:51;;;;;;;8.90;7.53;;;;;;;;;;5070333;28;20264;-74
2023/04/26 05:54:19;;;;;;;9.90;7.73;;;;;;;;;;5070630;28;20209;-72
2023/04/26 05:56:46;;;;;;;9.27;7.80;;;;;;;;;;5070329;28;20208;-72
2023/04/26 05:59:13;;;;;;;8.87;7.93;;;;;;;;;;5070108;28;20253;-72
2023/04/26 06:01:41;;;;;;;10.53;7.93;;;;;;;;;;5052459;28;20695;-72
2023/04/26 06:04:08;;;;;;;12.50;9.43;;;;;;;;;;5070007;28;20263;-74
2023/04/26 06:06:37;;;;;;;13.60;10.63;;;;;;;;;;5069798;28;20197;-73
2023/04/26 06:09:04;;;;;;;13.40;9.63;;;;;;;;;;5069848;28;20316;-73
2023/04/26 06:11:31;;;;;;;14.00;9.70;;;;;;;;;;5070089;28;20202;-72
2023/04/26 06:13:59;;;;;;;31.47;19.47;;;;;;;;;;5070187;28;20216;-73
2023/04/26 06:16:26;;;;;;;10.77;8.70;;;;;;;;;;5069953;28;20305;-73
2023/04/26 06:18:54;;;;;;;13.33;9.53;;;;;;;;;;5070252;28;20723;-73
2023/04/26 06:21:21;;;;;;;12.30;8.90;;;;;;;;;;5069582;28;20319;-73
2023/04/26 06:23:49;;;;;;;11.03;7.73;;;;;;;;;;5070316;28;20241;-74
2023/04/26 06:26:16;;;;;;;14.73;8.83;;;;;;;;;;5069602;28;20212;-74
2023/04/26 06:28:44;;;;;;;11.30;8.17;;;;;;;;;;5070007;28;20617;-73
2023/04/26 06:31:11;;;;;;;12.10;8.60;;;;;;;;;;5069701;28;20664;-73
2023/04/26 06:33:39;;;;;;;12.37;8.43;;;;;;;;;;5069727;28;20213;-73
2023/04/26 06:36:10;;;;;;;12.73;9.07;;;;;;;;;;5070232;28;20284;-73
2023/04/26 06:38:38;;;;;;;12.37;8.93;;;;;;;;;;5069459;28;20248;-73
2023/04/26 06:41:05;;;;;;;19.10;10.30;;;;;;;;;;5069985;28;20253;-73
2023/04/26 06:43:33;;;;;;;12.90;9.17;;;;;;;;;;5069618;28;20218;-73
2023/04/26 06:46:00;;;;;;;13.70;9.80;;;;;;;;;;5069624;28;20255;-74
2023/04/26 06:48:27;;;;;;;11.87;8.63;;;;;;;;;;5069508;28;20701;-73
2023/04/26 06:50:55;;;;;;;14.43;9.13;;;;;;;;;;5069333;28;20312;-73
2023/04/26 06:53:22;;;;;;;11.43;8.37;;;;;;;;;;5069464;28;20293;-72
2023/04/26 06:55:52;;;;;;;10.20;8.10;;;;;;;;;;5051671;28;20217;-72
2023/04/26 06:58:20;;;;;;;11.83;8.50;;;;;;;;;;5069369;28;20290;-72
2023/04/26 07:00:47;;;;;;;14.20;9.17;;;;;;;;;;5068969;28;20257;-74
2023/04/26 07:03:14;;;;;;;11.27;8.87;;;;;;;;;;5060721;28;20249;-74
2023/04/26 07:05:42;;;;;;;12.77;8.57;;;;;;;;;;5068064;28;20686;-72
2023/04/26 07:08:09;;;;;;;14.30;8.73;;;;;;;;;;5067639;28;20239;-74
2023/04/26 07:10:38;;;;;;;12.93;9.17;;;;;;;;;;5070205;28;20714;-74
2023/04/26 07:13:06;;;;;;;12.30;8.60;;;;;;;;;;5072393;28;20201;-74
2023/04/26 07:15:35;;;;;;;12.70;8.80;;;;;;;;;;5071982;28;20209;-73
2023/04/26 07:18:02;;;;;;;13.07;8.47;;;;;;;;;;5071448;28;20711;-74
2023/04/26 07:20:30;;;;;;;12.43;7.80;;;;;;;;;;5053263;28;20743;-74
2023/04/26 07:22:57;;;;;;;13.60;8.03;;;;;;;;;;5071114;28;20221;-74
2023/04/26 07:25:24;;;;;;;11.23;6.50;;;;;;;;;;5071243;28;20296;-74
2023/04/26 07:27:52;;;;;;;11.87;6.97;;;;;;;;;;5068723;28;20610;-74
2023/04/26 07:30:19;;;;;;;10.80;7.47;;;;;;;;;;5070270;28;20220;-74
2023/04/26 07:32:46;;;;;;;12.87;6.23;;;;;;;;;;5062454;28;20232;-74
2023/04/26 07:35:14;;;;;;;12.53;6.00;;;;;;;;;;5070575;28;20753;-74
2023/04/26 07:37:43;;;;;;;7.07;4.93;;;;;;;;;;5070587;28;20216;-73
2023/04/26 07:40:12;;;;;;;10.97;6.43;;;;;;;;;;5070855;28;20593;-75
2023/04/26 07:42:39;;;;;;;9.33;6.13;;;;;;;;;;5070878;28;20229;-74
2023/04/26 07:45:07;;;;;;;10.53;6.73;;;;;;;;;;5070464;28;20255;-74
2023/04/26 07:47:34;;;;;;;10.57;6.60;;;;;;;;;;5070454;28;20935;-74
2023/04/26 07:50:02;;;;;;;12.13;7.40;;;;;;;;;;5070721;28;20229;-74
2023/04/26 07:52:29;;;;;;;9.33;6.97;;;;;;;;;;5066402;28;20210;-75
2023/04/26 07:54:56;;;;;;;9.80;6.33;;;;;;;;;;5067797;28;20201;-75
2023/04/26 07:57:23;;;;;;;8.33;6.13;;;;;;;;;;5069918;28;20205;-74
2023/04/26 07:59:51;;;;;;;10.73;7.73;;;;;;;;;;5070082;28;20392;-75
2023/04/26 08:02:18;;;;;;;13.17;7.30;;;;;;;;;;5064045;28;20271;-73
2023/04/26 08:04:56;;;;;;;9.13;7.23;;;;;;;;;;5069074;28;20289;-74
2023/04/26 08:07:24;;;;;;;9.70;6.87;;;;;;;;;;5070618;28;20284;-74
2023/04/26 08:09:51;;;;;;;10.30;6.67;;;;;;;;;;5071391;28;20249;-75
2023/04/26 08:12:18;;;;;;;10.23;6.00;;;;;;;;;;5071749;28;20233;-73
2023/04/26 08:14:46;;;;;;;9.40;6.20;;;;;;;;;;5053389;28;20300;-74
2023/04/26 08:17:13;;;;;;;8.70;5.90;;;;;;;;;;5068044;28;20205;-74
2023/04/26 08:19:41;;;;;;;9.93;5.67;;;;;;;;;;5069734;28;20225;-74
2023/04/26 08:22:08;;;;;;;6.40;5.30;;;;;;;;;;5069692;28;20232;-74
2023/04/26 08:24:35;;;;;;;6.47;5.50;;;;;;;;;;5070763;28;20202;-74
2023/04/26 08:27:03;;;;;;;10.30;6.53;;;;;;;;;;5070552;28;20205;-75
2023/04/26 08:29:30;;;;;;;5.90;5.00;;;;;;;;;;5068339;28;20249;-74
2023/04/26 08:31:57;;;;;;;7.53;6.30;;;;;;;;;;5049747;28;20396;-74
2023/04/26 08:34:26;;;;;;;8.53;6.00;;;;;;;;;;5052768;28;20300;-74
2023/04/26 08:36:53;;;;;;;8.33;5.50;;;;;;;;;;5070188;28;20297;-74
2023/04/26 08:39:21;;;;;;;5.63;3.87;;;;;;;;;;5069331;28;20225;-74
2023/04/26 08:41:53;;;;;;;8.10;4.00;;;;;;;;;;5070247;28;20209;-74
2023/04/26 08:44:23;;;;;;;5.47;3.47;;;;;;;;;;5070023;28;20202;-74
2023/04/26 08:47:00;;;;;;;6.20;4.53;;;;;;;;;;5070217;28;20208;-74
2023/04/26 08:49:33;;;;;;;4.57;4.10;;;;;;;;;;5049662;28;20364;-74
2023/04/26 08:52:02;;;;;;;4.53;4.00;;;;;;;;;;5069843;28;20213;-74
2023/04/26 08:54:30;;;;;;;4.47;4.07;;;;;;;;;;5070339;28;20565;-75
2023/04/26 08:57:01;;;;;;;5.73;4.37;;;;;;;;;;5069923;28;20209;-74
2023/04/26 08:59:32;;;;;;;7.63;4.20;;;;;;;;;;5069730;28;20763;-75
2023/04/26 09:02:02;;;;;;;6.10;4.47;;;;;;;;;;5062342;28;20206;-74
2023/04/26 09:04:30;;;;;;;6.23;4.40;;;;;;;;;;5061223;28;20211;-74
2023/04/26 09:07:01;;;;;;;5.13;3.70;;;;;;;;;;5070219;28;20205;-74
2023/04/26 09:09:34;;;;;;;5.20;3.97;;;;;;;;;;5086546;28;20229;-74
2023/04/26 09:12:02;;;;;;;6.87;3.70;;;;;;;;;;5063729;28;20637;-75
2023/04/26 09:14:29;;;;;;;4.77;3.70;;;;;;;;;;5062942;28;20198;-75
2023/04/26 09:16:57;;;;;;;6.27;4.07;;;;;;;;;;5069113;28;21427;-73
2023/04/26 09:19:37;;;;;;;5.17;3.60;;;;;;;;;;5085345;28;20618;-73
2023/04/26 09:22:05;;;;;;;4.57;3.77;;;;;;;;;;5069400;28;20217;-74
2023/04/26 09:24:49;;;;;;;6.23;4.60;;;;;;;;;;5069872;28;20623;-74
2023/04/26 09:27:16;;;;;;;3.60;3.23;;;;;;;;;;5049402;28;20202;-74
2023/04/26 09:30:00;;;;;;;6.07;3.60;;;;;;;;;;5049277;28;20610;-74
2023/04/26 09:32:42;;;;;;;4.13;3.10;;;;;;;;;;5054248;28;20198;-74
2023/04/26 09:35:18;;;;;;;4.60;2.97;;;;;;;;;;5068924;28;20205;-74
2023/04/26 09:37:57;;;;;;;3.63;2.90;;;;;;;;;;5063080;28;20239;-73
2023/04/26 09:40:31;;;;;;;3.53;2.40;;;;;;;;;;5068868;28;20323;-75
2023/04/26 09:43:05;;;;;;;4.53;2.70;;;;;;;;;;5069456;28;20319;-75
2023/04/26 09:45:42;;;;;;;3.73;3.13;;;;;;;;;;5069203;28;20300;-75
2023/04/26 09:48:29;;;;;;;4.07;2.80;;;;;;;;;;5068788;28;20239;-74
2023/04/26 09:50:57;;;;;;;4.57;2.63;;;;;;;;;;5051720;28;20248;-74
2023/04/26 09:53:26;;;;;;;3.70;3.33;;;;;;;;;;5069163;28;20263;-73
2023/04/26 09:55:54;;;;;;;3.23;2.93;;;;;;;;;;5069552;28;20576;-75
2023/04/26 09:58:22;;;;;;;4.37;2.60;;;;;;;;;;5068964;28;20633;-74
2023/04/26 10:00:53;;;;;;;5.13;2.77;;;;;;;;;;5069087;28;20688;-74
2023/04/26 10:03:22;;;;;;;4.33;2.77;;;;;;;;;;5063050;28;20236;-73
2023/04/26 10:05:50;;;;;;;2.53;2.33;;;;;;;;;;5068477;28;20284;-75
2023/04/26 10:08:17;;;;;;;4.20;2.87;;;;;;;;;;5067369;28;20349;-75
2023/04/26 10:10:44;;;;;;;3.40;3.10;;;;;;;;;;5066885;28;20380;-75
2023/04/26 10:13:12;;;;;;;3.03;2.70;;;;;;;;;;5067108;28;20266;-74
2023/04/26 10:15:41;;;;;;;4.40;3.27;;;;;;;;;;5068749;28;20231;-74
2023/04/26 10:18:08;;;;;;;6.93;3.20;;;;;;;;;;5086266;28;20257;-74
2023/04/26 10:20:40;;;;;;;5.67;3.40;;;;;;;;;;5088695;28;20228;-75
2023/04/26 10:23:12;;;;;;;6.67;3.60;;;;;;;;;;5088932;28;20259;-74
2023/04/26 10:25:43;;;;;;;7.27;4.50;;;;;;;;;;5088987;28;20276;-74
2023/04/26 10:28:10;;;;;;;7.10;4.70;;;;;;;;;;5087347;28;20304;-74
2023/04/26 10:31:05;;;;;;;8.70;5.03;;;;;;;;;;5081283;28;20274;-75
2023/04/26 10:33:33;;;;;;;4.70;3.77;;;;;;;;;;5065795;28;20236;-74
2023/04/26 10:36:04;;;;;;;5.90;3.90;;;;;;;;;;5088264;28;20250;-74
2023/04/26 10:38:32;;;;;;;5.03;4.50;;;;;;;;;;5088623;28;20615;-76
2023/04/26 10:41:18;;;;;;;6.60;4.43;;;;;;;;;;5058829;28;20481;-74
2023/04/26 10:43:45;;;;;;;6.63;4.90;;;;;;;;;;5068857;28;20316;-74
2023/04/26 10:46:33;;;;;;;6.37;4.33;;;;;;;;;;5071523;28;20228;-75
2023/04/26 10:49:12;;;;;;;5.57;4.17;;;;;;;;;;5058484;28;20561;-74
2023/04/26 10:51:39;;;;;;;8.13;4.83;;;;;;;;;;5070088;28;20543;-74
2023/04/26 10:54:06;;;;;;;4.57;4.17;;;;;;;;;;5092726;28;20669;-74
2023/04/26 10:56:40;;;;;;;7.63;4.17;;;;;;;;;;5092942;28;20316;-75
2023/04/26 10:59:15;;;;;;;4.10;3.70;;;;;;;;;;5092214;28;20274;-75
2023/04/26 11:01:45;;;;;;;4.33;3.47;;;;;;;;;;5081667;28;20305;-74
2023/04/26 11:04:12;;;;;;;3.50;3.20;;;;;;;;;;5091378;28;20213;-74
2023/04/26 11:06:50;;;;;;;3.13;2.70;;;;;;;;;;5092258;28;20693;-75
2023/04/26 11:09:50;;;;;;;3.17;2.63;;;;;;;;;;5051960;28;20755;-75
2023/04/26 11:12:17;;;;;;;7.63;5.00;;;;;;;;;;5008740;28;20210;-74
2023/04/26 11:14:45;;;;;;;8.50;4.97;;;;;;;;;;5051835;28;20229;-75
2023/04/26 11:17:13;;;;;;;6.00;4.43;;;;;;;;;;5051948;28;20633;-75
2023/04/26 11:19:41;;;;;;;8.50;4.77;;;;;;;;;;5051120;28;20581;-74
2023/04/26 11:22:08;;;;;;;8.50;4.87;;;;;;;;;;5051855;28;20225;-74
2023/04/26 11:24:35;;;;;;;6.80;4.70;;;;;;;;;;5065838;28;20237;-74
2023/04/26 11:27:10;;;;;;;6.20;4.80;;;;;;;;;;5092834;28;20259;-74
2023/04/26 11:29:37;;;;;;;5.87;4.37;;;;;;;;;;5077592;28;20220;-75
2023/04/26 11:32:05;;;;;;;6.60;5.20;;;;;;;;;;5072956;28;20206;-75
2023/04/26 11:34:40;;;;;;;6.10;5.10;;;;;;;;;;5071117;28;20654;-76
2023/04/26 11:37:07;;;;;;;9.63;4.50;;;;;;;;;;5091791;28;20359;-74
2023/04/26 11:39:36;;;;;;;6.63;3.83;;;;;;;;;;5079832;28;20305;-74
2023/04/26 11:42:06;;;;;;;6.90;4.50;;;;;;;;;;5072147;28;20224;-74
2023/04/26 11:44:34;;;;;;;5.97;4.37;;;;;;;;;;5072222;28;20228;-75
2023/04/26 11:47:05;;;;;;;4.33;3.67;;;;;;;;;;5072070;28;20217;-74
2023/04/26 11:49:33;;;;;;;4.93;4.00;;;;;;;;;;5071007;28;20240;-75
2023/04/26 11:52:02;;;;;;;4.73;3.60;;;;;;;;;;5071733;28;20279;-74
2023/04/26 11:54:30;;;;;;;5.07;3.53;;;;;;;;;;5054012;28;20209;-75
2023/04/26 11:56:58;;;;;;;7.67;4.13;;;;;;;;;;5071219;28;20271;-75
2023/04/26 11:59:29;;;;;;;4.87;3.60;;;;;;;;;;5071083;28;20269;-75
2023/04/26 12:01:57;;;;;;;5.20;3.53;;;;;;;;;;5065743;28;20284;-75
2023/04/26 12:04:28;;;;;;;5.27;3.93;;;;;;;;;;5073931;28;20252;-75
2023/04/26 12:06:56;;;;;;;6.40;3.93;;;;;;;;;;5091388;28;20257;-74
2023/04/26 12:09:26;;;;;;;5.50;3.40;;;;;;;;;;5091012;28;20227;-76
2023/04/26 12:12:00;;;;;;;7.00;5.30;;;;;;;;;;5091276;28;20245;-74
2023/04/26 12:14:30;;;;;;;6.57;3.60;;;;;;;;;;5091561;28;20204;-75
2023/04/26 12:17:02;;;;;;;5.60;3.90;;;;;;;;;;5090865;28;20266;-75
2023/04/26 12:19:33;;;;;;;7.10;4.87;;;;;;;;;;5091035;28;20228;-75
2023/04/26 12:22:00;;;;;;;10.10;4.97;;;;;;;;;;5090830;28;20277;-75
2023/04/26 12:24:32;;;;;;;7.47;4.47;;;;;;;;;;5091328;28;20281;-75
2023/04/26 12:26:59;;;;;;;7.00;4.33;;;;;;;;;;5091345;28;20262;-75
2023/04/26 12:29:29;;;;;;;8.97;4.23;;;;;;;;;;5084037;28;20272;-74
2023/04/26 12:32:00;;;;;;;6.27;4.83;;;;;;;;;;5067623;28;20577;-75
2023/04/26 12:34:28;;;;;;;6.60;4.10;;;;;;;;;;5070428;28;20612;-75
2023/04/26 12:36:55;;;;;;;4.87;4.00;;;;;;;;;;5070465;28;20221;-75
2023/04/26 12:39:22;;;;;;;4.80;3.97;;;;;;;;;;5070349;28;20607;-75
2023/04/26 12:41:50;;;;;;;6.17;3.70;;;;;;;;;;5070788;28;20205;-74
2023/04/26 12:44:17;;;;;;;6.67;4.20;;;;;;;;;;5069928;28;20313;-75
2023/04/26 12:46:48;;;;;;;5.97;3.97;;;;;;;;;;5062887;28;20189;-74
2023/04/26 12:49:15;;;;;;;5.93;4.00;;;;;;;;;;5074764;28;20232;-75
2023/04/26 12:51:43;;;;;;;5.10;3.90;;;;;;;;;;5091816;28;20560;-74
2023/04/26 12:54:10;;;;;;;3.97;3.33;;;;;;;;;;5091202;28;20721;-74
2023/04/26 12:56:42;;;;;;;5.73;3.50;;;;;;;;;;5091050;28;20304;-74
2023/04/26 12:59:10;;;;;;;6.32;3.47;;;;;;;;;;5090245;28;20243;-74
2023/04/26 13:01:37;;;;;;;4.95;3.30;;;;;;;;;;5081295;28;20628;-74
2023/04/26 13:04:04;;;;;;;7.43;3.58;;;;;;;;;;5077952;28;20350;-74
2023/04/26 13:06:33;;;;;;;7.43;3.58;;;;;;;;;;5083928;28;20236;-74
2023/04/26 13:09:00;;;;;;;4.00;3.10;;;;;;;;;;5068680;28;20206;-75
2023/04/26 13:11:28;;;;;;;3.95;3.40;;;;;;;;;;5069840;28;20233;-74
2023/04/26 13:13:55;;;;;;;6.50;3.50;;;;;;;;;;5069925;28;20286;-74
2023/04/26 13:16:22;;;;;;;3.58;2.92;;;;;;;;;;5069738;28;20643;-74
2023/04/26 13:18:50;;;;;;;4.82;3.33;;;;;;;;;;5051577;28;20619;-74
2023/04/26 13:21:17;;;;;;;3.00;2.78;;;;;;;;;;5069742;28;20266;-74
2023/04/26 13:23:45;;;;;;;4.00;2.92;;;;;;;;;;5076950;28;20282;-74
2023/04/26 13:26:13;;;;;;;3.63;2.92;;;;;;;;;;5090179;28;20300;-74
2023/04/26 13:28:41;;;;;;;3.75;2.90;;;;;;;;;;5088448;28;20280;-75
2023/04/26 13:31:08;;;;;;;4.07;2.88;;;;;;;;;;5081500;28;20687;-75
2023/04/26 13:33:35;;;;;;;4.30;2.83;;;;;;;;;;5073797;28;20718;-75
2023/04/26 13:36:03;;;;;;;3.38;2.67;;;;;;;;;;5081075;28;20247;-75
2023/04/26 13:38:30;;;;;;;3.50;3.10;;;;;;;;;;5069087;28;20205;-75
2023/04/26 13:40:59;;;;;;;3.05;2.75;;;;;;;;;;5069741;28;20589;-75
2023/04/26 13:43:26;;;;;;;5.05;3.33;;;;;;;;;;5068856;28;20220;-74
2023/04/26 13:45:53;;;;;;;4.20;2.90;;;;;;;;;;5069320;28;20197;-75
2023/04/26 13:48:21;;;;;;;6.10;3.08;;;;;;;;;;5069395;28;20201;-75
2023/04/26 13:50:48;;;;;;;5.15;3.20;;;;;;;;;;5061110;28;20221;-75
2023/04/26 13:53:15;;;;;;;4.45;3.45;;;;;;;;;;5069878;28;20643;-74
2023/04/26 13:55:42;;;;;;;3.75;2.95;;;;;;;;;;5069163;28;20270;-74
2023/04/26 13:58:10;;;;;;;2.90;2.70;;;;;;;;;;5068666;28;20252;-74
2023/04/26 14:00:37;;;;;;;4.57;3.00;;;;;;;;;;5051322;28;20288;-74
2023/04/26 14:03:04;;;;;;;3.10;2.80;;;;;;;;;;5044798;28;20871;-74
2023/04/26 14:05:32;;;;;;;5.93;2.72;;;;;;;;;;5086945;28;20197;-74
2023/04/26 14:07:59;;;;;;;3.53;2.83;;;;;;;;;;5089213;28;20601;-74
2023/04/26 14:10:26;;;;;;;3.35;2.55;;;;;;;;;;5089037;28;20634;-75
2023/04/26 14:12:55;;;;;;;2.90;2.40;;;;;;;;;;5091367;28;20208;-73
2023/04/26 14:15:22;;;;;;;3.67;2.42;;;;;;;;;;5071860;28;20236;-75
2023/04/26 14:17:49;;;;;;;2.92;2.20;;;;;;;;;;5089376;28;20734;-75
2023/04/26 14:20:17;;;;;;;4.25;2.22;;;;;;;;;;5088116;28;20285;-75
2023/04/26 14:22:44;;;;;;;3.67;2.58;;;;;;;;;;5090417;28;20232;-75
2023/04/26 14:25:12;;;;;;;3.50;2.55;;;;;;;;;;5071234;28;20545;-74
2023/04/26 14:27:39;;;;;;;2.22;2.10;;;;;;;;;;5089402;28;20201;-74
2023/04/26 14:30:07;;;;;;;5.60;2.38;;;;;;;;;;5085330;28;20259;-74
2023/04/26 14:32:34;;;;;;;3.65;2.17;;;;;;;;;;5057891;28;20197;-74
2023/04/26 14:35:01;;;;;;;2.72;2.50;;;;;;;;;;5080280;28;20270;-75
2023/04/26 14:37:28;;;;;;;2.45;2.20;;;;;;;;;;5070379;28;20250;-76
2023/04/26 14:39:56;;;;;;;3.00;2.30;;;;;;;;;;5089089;28;20294;-75
2023/04/26 14:42:23;;;;;;;2.75;2.00;;;;;;;;;;5071289;28;20246;-75